Time;durP1;ratioP1;P1;durP2;ratioP2;P2;SDS_P1;SDS_P2;PMS_P1;PMS_P2;Temp;Humidity;BMP_temperature;BMP_pressure;BME280_temperature;BME280_humidity;BME280_pressure;Samples;Min_cycle;Max_cycle;Signal;HPM_P1;HPM_P2
2022/02/24 00:01:56;;;;;;;9.93;3.25;;;9.30;99.90;;;;;;6186516;23;20076;-85
2022/02/24 00:04:27;;;;;;;12.55;3.10;;;9.20;99.90;;;;;;6160319;23;20432;-85
2022/02/24 00:06:55;;;;;;;9.65;3.15;;;9.20;99.90;;;;;;6136340;23;20037;-85
2022/02/24 00:09:29;;;;;;;11.30;2.85;;;9.30;99.90;;;;;;6186131;23;20005;-85
2022/02/24 00:11:54;;;;;;;10.93;2.85;;;9.20;99.90;;;;;;6160124;23;20359;-85
2022/02/24 00:14:20;;;;;;;10.93;3.75;;;9.20;99.90;;;;;;6160007;23;20027;-85
2022/02/24 00:16:46;;;;;;;12.15;3.63;;;9.20;99.90;;;;;;6160168;23;20040;-84
2022/02/24 00:19:14;;;;;;;13.18;3.42;;;9.20;99.90;;;;;;6160077;23;20001;-86
2022/02/24 00:21:40;;;;;;;10.32;3.00;;;9.20;99.90;;;;;;6135403;23;20021;-85
2022/02/24 00:24:10;;;;;;;11.40;3.00;;;9.20;99.90;;;;;;6160144;23;20442;-85
2022/02/24 00:26:38;;;;;;;11.13;3.35;;;9.20;99.90;;;;;;6186019;23;20458;-84
2022/02/24 00:29:04;;;;;;;13.02;3.08;;;9.20;99.90;;;;;;6160287;23;20363;-85
2022/02/24 00:31:40;;;;;;;9.68;2.88;;;9.20;99.90;;;;;;6159851;23;20015;-84
2022/02/24 00:34:08;;;;;;;8.30;2.65;;;9.20;99.90;;;;;;6137105;23;20032;-83
2022/02/24 00:36:34;;;;;;;11.38;3.47;;;9.20;99.90;;;;;;6159734;23;20005;-85
2022/02/24 00:39:03;;;;;;;9.20;3.13;;;9.20;99.90;;;;;;6160106;23;20083;-85
2022/02/24 00:41:34;;;;;;;10.15;3.10;;;9.20;99.90;;;;;;6159815;23;20371;-85
2022/02/24 00:44:00;;;;;;;9.43;3.20;;;9.20;99.90;;;;;;6186428;23;20017;-84
2022/02/24 00:46:28;;;;;;;11.52;3.05;;;9.20;99.90;;;;;;6159739;23;20116;-85
2022/02/24 00:48:56;;;;;;;10.95;3.17;;;9.20;99.90;;;;;;6159633;23;20088;-84
2022/02/24 00:51:24;;;;;;;10.30;2.90;;;9.20;99.90;;;;;;6159702;23;20353;-86
2022/02/24 01:00:28;;;;;;;11.85;3.45;;;9.20;99.90;;;;;;6118554;23;20032;-85
2022/02/24 01:02:57;;;;;;;12.82;3.17;;;9.20;99.90;;;;;;6186491;23;20001;-84
2022/02/24 01:05:33;;;;;;;;;;;;;;;;;;;;;
2022/02/24 01:07:58;;;;;;;12.15;3.38;;;9.10;99.90;;;;;;6184877;23;20076;-85
2022/02/24 01:10:34;;;;;;;;;;;;;;;;;;;;;
2022/02/24 01:13:00;;;;;;;10.38;3.60;;;9.10;99.90;;;;;;6184829;23;20060;-84
2022/02/24 01:15:28;;;;;;;11.98;3.30;;;9.20;99.90;;;;;;6187645;23;20363;-86
2022/02/24 01:17:59;;;;;;;13.23;3.33;;;9.10;99.90;;;;;;6184589;23;19997;-85
2022/02/24 01:20:46;;;;;;;11.00;3.38;;;9.10;99.90;;;;;;6158710;23;20060;-85
2022/02/24 01:23:15;;;;;;;11.27;3.28;;;9.10;99.90;;;;;;6156127;23;20001;-85
2022/02/24 01:25:43;;;;;;;13.38;3.75;;;9.00;99.90;;;;;;6159002;23;20028;-84
2022/02/24 01:28:12;;;;;;;14.27;4.05;;;9.00;99.90;;;;;;6159654;23;20001;-84
2022/02/24 01:30:37;;;;;;;13.07;4.00;;;9.00;99.90;;;;;;6159250;23;20029;-84
2022/02/24 01:33:03;;;;;;;12.80;3.83;;;9.00;99.90;;;;;;6159131;23;20044;-84
2022/02/24 01:35:29;;;;;;;14.18;4.85;;;9.00;99.90;;;;;;6159474;23;20001;-85
2022/02/24 01:37:55;;;;;;;10.07;3.65;;;8.90;99.90;;;;;;6159483;23;20490;-84
2022/02/24 01:40:23;;;;;;;13.25;3.72;;;9.00;99.90;;;;;;6134992;23;20037;-84
2022/02/24 01:42:49;;;;;;;15.23;3.95;;;9.00;99.90;;;;;;6185765;23;20016;-84
2022/02/24 01:45:18;;;;;;;13.00;4.20;;;8.90;99.90;;;;;;6159797;23;20009;-84
2022/02/24 01:47:48;;;;;;;10.18;3.78;;;9.00;99.90;;;;;;6159374;23;20001;-84
2022/02/24 01:50:16;;;;;;;16.08;4.82;;;9.00;99.90;;;;;;6159534;23;20088;-86
2022/02/24 01:52:47;;;;;;;15.25;4.40;;;9.00;99.90;;;;;;6159229;23;20012;-84
2022/02/24 01:55:16;;;;;;;14.20;4.43;;;8.90;99.90;;;;;;6135136;23;20032;-84
2022/02/24 01:57:49;;;;;;;12.85;4.15;;;8.90;99.90;;;;;;6185777;23;20478;-85
2022/02/24 02:00:15;;;;;;;14.95;4.32;;;8.90;99.90;;;;;;6158198;23;20012;-85
2022/02/24 02:02:43;;;;;;;13.52;4.50;;;8.90;99.90;;;;;;6159166;23;20008;-84
2022/02/24 02:05:11;;;;;;;12.48;4.25;;;8.90;99.90;;;;;;6159407;23;20001;-84
2022/02/24 02:07:40;;;;;;;15.88;3.92;;;8.90;99.90;;;;;;6159082;23;20064;-84
2022/02/24 02:10:09;;;;;;;15.43;3.97;;;8.90;99.90;;;;;;6159137;23;20060;-84
2022/02/24 02:12:59;;;;;;;9.30;3.67;;;8.90;99.90;;;;;;6185133;23;20001;-84
2022/02/24 02:15:27;;;;;;;11.50;3.80;;;8.90;99.90;;;;;;6136796;23;20020;-84
2022/02/24 02:17:58;;;;;;;16.73;4.50;;;8.90;99.90;;;;;;6159135;23;20028;-85
2022/02/24 02:20:26;;;;;;;13.35;3.95;;;8.90;99.90;;;;;;6159346;23;20001;-84
2022/02/24 02:22:54;;;;;;;11.00;3.95;;;8.80;99.90;;;;;;6134570;23;20051;-84
2022/02/24 02:25:20;;;;;;;11.38;3.92;;;8.80;99.90;;;;;;6159117;23;20008;-84
2022/02/24 02:27:51;;;;;;;20.75;3.95;;;8.80;99.90;;;;;;6159862;23;20001;-83
2022/02/24 02:30:18;;;;;;;15.55;4.10;;;8.80;99.90;;;;;;6159208;23;20055;-84
2022/02/24 02:32:43;;;;;;;16.67;4.50;;;8.70;99.90;;;;;;6159118;23;20427;-84
2022/02/24 02:35:09;;;;;;;16.50;4.18;;;8.70;99.90;;;;;;6159341;23;20001;-83
2022/02/24 02:37:37;;;;;;;12.68;3.85;;;8.70;99.90;;;;;;6160946;23;20443;-83
2022/02/24 02:40:18;;;;;;;15.00;4.13;;;8.70;99.90;;;;;;6161187;23;20498;-83
2022/02/24 02:42:46;;;;;;;12.40;3.65;;;8.80;99.90;;;;;;6160681;23;20017;-83
2022/02/24 02:45:12;;;;;;;15.18;4.40;;;8.70;99.90;;;;;;6136802;23;20055;-83
2022/02/24 02:47:41;;;;;;;9.95;3.35;;;8.70;99.90;;;;;;6160733;23;20009;-84
2022/02/24 02:50:10;;;;;;;8.77;2.78;;;8.70;99.90;;;;;;6160974;23;20001;-84
2022/02/24 02:52:42;;;;;;;13.52;3.30;;;8.70;99.90;;;;;;6160833;23;20443;-86
2022/02/24 02:55:10;;;;;;;9.95;3.38;;;8.70;99.90;;;;;;6161029;23;20005;-83
2022/02/24 02:57:39;;;;;;;12.23;3.08;;;8.70;99.90;;;;;;6160901;23;20001;-83
2022/02/24 03:00:11;;;;;;;10.10;3.28;;;8.70;99.90;;;;;;6137100;23;20050;-84
2022/02/24 03:02:39;;;;;;;14.73;3.75;;;8.70;99.90;;;;;;6160770;23;20001;-87
2022/02/24 03:05:06;;;;;;;11.75;3.35;;;8.80;99.90;;;;;;6160839;23;20024;-83
2022/02/24 03:07:39;;;;;;;14.73;3.20;;;8.70;99.90;;;;;;6160898;23;20445;-84
2022/02/24 03:10:06;;;;;;;12.23;2.78;;;8.70;99.90;;;;;;6187374;23;20007;-83
2022/02/24 03:12:36;;;;;;;14.02;3.40;;;8.70;99.90;;;;;;6160908;23;20006;-83
2022/02/24 03:15:13;;;;;;;11.52;2.78;;;8.70;99.90;;;;;;6136359;23;20435;-84
2022/02/24 03:17:46;;;;;;;13.35;3.65;;;8.70;99.90;;;;;;6160631;23;19997;-88
2022/02/24 03:20:15;;;;;;;13.68;2.67;;;8.70;99.90;;;;;;6160693;23;20154;-83
2022/02/24 03:22:41;;;;;;;9.23;2.55;;;8.70;99.90;;;;;;6160591;23;20001;-84
2022/02/24 03:25:07;;;;;;;10.05;2.70;;;8.70;99.90;;;;;;6160729;23;20008;-84
2022/02/24 03:27:37;;;;;;;13.35;2.63;;;8.70;99.90;;;;;;6160732;23;20048;-84
2022/02/24 03:30:06;;;;;;;10.82;2.30;;;8.70;99.90;;;;;;6160554;23;20052;-84
2022/02/24 03:32:32;;;;;;;8.57;2.50;;;8.70;99.90;;;;;;6136251;23;20071;-84
2022/02/24 03:34:57;;;;;;;16.40;3.05;;;8.70;99.90;;;;;;6111712;23;20005;-84
2022/02/24 03:37:23;;;;;;;11.75;3.60;;;8.70;99.90;;;;;;6160635;23;20423;-84
2022/02/24 03:39:49;;;;;;;13.02;2.80;;;8.70;99.90;;;;;;6135970;23;20414;-84
2022/02/24 03:42:15;;;;;;;13.90;3.28;;;8.70;99.90;;;;;;6111275;23;20436;-84
2022/02/24 03:44:40;;;;;;;10.82;2.75;;;8.70;99.90;;;;;;6136167;23;20001;-84
2022/02/24 03:47:06;;;;;;;10.30;3.38;;;8.70;99.90;;;;;;6160081;23;20539;-83
2022/02/24 03:49:32;;;;;;;12.32;2.78;;;8.70;99.90;;;;;;6135810;23;20320;-83
2022/02/24 03:51:58;;;;;;;11.98;3.10;;;8.70;99.90;;;;;;6111411;23;20013;-84
2022/02/24 03:54:26;;;;;;;13.00;3.15;;;8.70;99.90;;;;;;6136243;23;20487;-83
2022/02/24 03:56:51;;;;;;;15.68;3.30;;;8.70;99.90;;;;;;6135835;23;20012;-84
2022/02/24 03:59:17;;;;;;;10.48;3.72;;;8.70;99.90;;;;;;6160463;23;20005;-83
2022/02/24 04:01:43;;;;;;;16.25;3.85;;;8.70;99.90;;;;;;6111768;23;20009;-84
2022/02/24 04:04:12;;;;;;;11.75;3.08;;;8.70;99.90;;;;;;6111647;23;20028;-83
2022/02/24 04:06:38;;;;;;;14.32;3.15;;;8.70;99.90;;;;;;6160414;23;20005;-84
2022/02/24 04:09:04;;;;;;;10.82;2.80;;;8.70;99.90;;;;;;6135703;23;20532;-84
2022/02/24 04:11:32;;;;;;;12.63;3.10;;;8.70;99.90;;;;;;6160146;23;20009;-84
2022/02/24 04:14:00;;;;;;;7.78;2.63;;;8.70;99.90;;;;;;6135646;23;20011;-83
2022/02/24 04:16:26;;;;;;;10.85;3.15;;;8.70;99.90;;;;;;6160235;23;20009;-83
2022/02/24 04:18:51;;;;;;;11.02;2.80;;;8.70;99.90;;;;;;6160009;23;20442;-83
2022/02/24 04:21:17;;;;;;;13.25;2.90;;;8.70;99.90;;;;;;6160148;23;20005;-85
2022/02/24 04:23:45;;;;;;;13.45;3.03;;;8.70;99.90;;;;;;6159998;23;20005;-84
2022/02/24 04:26:11;;;;;;;10.93;3.30;;;8.70;99.90;;;;;;6134817;23;20087;-83
2022/02/24 04:28:37;;;;;;;11.63;3.03;;;8.70;99.90;;;;;;6135861;23;20029;-84
2022/02/24 04:31:02;;;;;;;14.75;2.78;;;8.70;99.90;;;;;;6159911;23;20009;-83
2022/02/24 04:33:28;;;;;;;9.55;2.97;;;8.70;99.90;;;;;;6160039;23;20002;-83
2022/02/24 04:35:54;;;;;;;12.18;3.35;;;8.70;99.90;;;;;;6160027;23;19997;-84
2022/02/24 04:38:20;;;;;;;11.35;2.63;;;8.70;99.90;;;;;;6159617;23;19997;-83
2022/02/24 04:40:49;;;;;;;12.30;3.80;;;8.70;99.90;;;;;;6160067;23;20001;-84
2022/02/24 04:43:19;;;;;;;15.68;3.72;;;8.70;99.90;;;;;;6159679;23;20020;-83
2022/02/24 04:45:47;;;;;;;15.40;3.20;;;8.60;99.90;;;;;;6160291;23;20320;-84
2022/02/24 04:48:13;;;;;;;17.77;4.22;;;8.60;99.90;;;;;;6160000;23;20008;-83
2022/02/24 04:50:40;;;;;;;14.68;4.18;;;8.60;99.90;;;;;;6159516;23;20016;-83
2022/02/24 04:53:08;;;;;;;14.63;3.72;;;8.60;99.90;;;;;;6186186;23;20005;-83
2022/02/24 04:55:34;;;;;;;15.32;3.65;;;8.60;99.90;;;;;;6135420;23;20012;-84
2022/02/24 04:58:00;;;;;;;12.68;3.70;;;8.60;99.90;;;;;;6135101;23;20083;-84
2022/02/24 05:00:28;;;;;;;10.93;3.42;;;8.60;99.90;;;;;;6135156;23;20391;-83
2022/02/24 05:02:53;;;;;;;12.23;3.10;;;8.60;99.90;;;;;;6159035;23;20001;-84
2022/02/24 05:05:19;;;;;;;13.15;3.13;;;8.60;99.90;;;;;;6159817;23;20047;-84
2022/02/24 05:07:48;;;;;;;12.45;3.15;;;8.60;99.90;;;;;;6134556;23;20147;-84
2022/02/24 05:10:16;;;;;;;15.63;3.17;;;8.60;99.90;;;;;;6135620;23;20005;-83
2022/02/24 05:12:45;;;;;;;10.93;3.30;;;8.60;99.90;;;;;;6159525;23;20009;-83
2022/02/24 05:15:11;;;;;;;14.18;3.40;;;8.60;99.90;;;;;;6159296;23;20079;-83
2022/02/24 05:17:40;;;;;;;15.95;3.72;;;8.60;99.90;;;;;;6135109;23;20036;-83
2022/02/24 05:20:11;;;;;;;11.55;3.22;;;8.60;99.90;;;;;;6135677;23;20035;-84
2022/02/24 05:22:40;;;;;;;12.80;3.67;;;8.60;99.90;;;;;;6137084;23;20092;-84
2022/02/24 05:25:12;;;;;;;11.90;4.22;;;8.70;99.90;;;;;;6135782;23;20010;-83
2022/02/24 05:27:40;;;;;;;14.10;2.97;;;8.60;99.90;;;;;;6159837;23;20423;-83
2022/02/24 05:30:27;;;;;;;15.50;3.47;;;8.60;99.90;;;;;;6111491;23;20001;-83
2022/02/24 05:32:55;;;;;;;13.73;3.42;;;8.60;99.90;;;;;;6132940;23;20017;-85
2022/02/24 05:35:21;;;;;;;12.15;4.60;;;8.60;99.90;;;;;;6159571;23;20005;-84
2022/02/24 05:37:51;;;;;;;11.70;3.47;;;8.60;99.90;;;;;;6159639;23;20001;-84
2022/02/24 05:40:18;;;;;;;15.23;3.80;;;8.70;99.90;;;;;;6159525;23;20076;-84
2022/02/24 05:42:46;;;;;;;14.52;3.72;;;8.60;99.90;;;;;;6159103;23;20302;-84
2022/02/24 05:45:36;;;;;;;10.52;3.67;;;8.60;99.90;;;;;;6159379;23;20012;-84
2022/02/24 05:48:04;;;;;;;13.73;3.63;;;8.60;99.90;;;;;;6134762;23;20008;-84
2022/02/24 05:50:30;;;;;;;15.77;3.58;;;8.60;99.90;;;;;;6135332;23;20063;-83
2022/02/24 05:53:02;;;;;;;14.15;3.60;;;8.60;99.90;;;;;;6159489;23;20359;-86
2022/02/24 05:55:37;;;;;;;14.60;3.20;;;8.60;99.90;;;;;;6185904;23;19997;-84
2022/02/24 05:58:10;;;;;;;12.90;3.42;;;8.60;99.90;;;;;;6159336;23;20084;-84
2022/02/24 06:00:40;;;;;;;15.13;3.38;;;8.60;99.90;;;;;;6159634;23;20302;-83
2022/02/24 06:03:08;;;;;;;16.13;3.85;;;8.60;99.90;;;;;;6160046;23;20009;-84
2022/02/24 06:05:36;;;;;;;13.68;3.53;;;8.60;99.90;;;;;;6134877;23;20009;-83
2022/02/24 06:08:05;;;;;;;12.80;3.95;;;8.50;99.90;;;;;;6159113;23;20005;-85
2022/02/24 06:10:34;;;;;;;13.20;4.00;;;8.50;99.90;;;;;;6159358;23;20011;-84
2022/02/24 06:12:59;;;;;;;12.35;3.90;;;8.50;99.90;;;;;;6161239;23;20008;-85
2022/02/24 06:15:25;;;;;;;14.02;3.38;;;8.50;99.90;;;;;;6161469;23;20005;-84
2022/02/24 06:17:51;;;;;;;12.10;3.50;;;8.50;99.90;;;;;;6161319;23;20034;-83
2022/02/24 06:20:17;;;;;;;14.80;4.13;;;8.50;99.90;;;;;;6187545;23;20008;-84
2022/02/24 06:22:52;;;;;;;15.13;3.63;;;8.50;99.90;;;;;;6187438;23;20001;-84
2022/02/24 06:25:18;;;;;;;12.73;3.63;;;8.50;99.90;;;;;;6161222;23;20080;-84
2022/02/24 06:34:01;;;;;;;;;;;8.50;99.90;;;;;;6068168;23;20505;-86
2022/02/24 06:36:26;;;;;;;12.25;3.10;;;8.50;99.90;;;;;;6136642;23;19939;-84
2022/02/24 06:38:52;;;;;;;16.25;4.13;;;8.50;99.90;;;;;;6136889;23;20309;-85
2022/02/24 06:41:20;;;;;;;15.38;3.42;;;8.50;99.90;;;;;;6112209;23;20020;-84
2022/02/24 06:43:46;;;;;;;11.82;3.00;;;8.50;99.90;;;;;;6097867;23;20029;-85
2022/02/24 06:46:56;;;;;;;12.02;2.60;;;8.50;99.90;;;;;;6107243;23;20014;-84
2022/02/24 06:49:22;;;;;;;12.20;3.75;;;8.50;99.90;;;;;;6155934;23;20215;-85
2022/02/24 06:51:52;;;;;;;9.55;2.92;;;8.50;99.90;;;;;;6156142;23;20012;-84
2022/02/24 06:54:30;;;;;;;13.27;2.50;;;8.50;99.90;;;;;;6156759;23;20060;-84
2022/02/24 06:57:18;;;;;;;13.73;3.25;;;8.50;99.90;;;;;;6155799;23;20013;-85
2022/02/24 07:03:04;;;;;;;16.48;3.53;;;8.50;99.90;;;;;;6091336;23;20073;-85
2022/02/24 07:05:32;;;;;;;11.70;3.90;;;8.50;99.90;;;;;;6155924;23;20436;-84
2022/02/24 07:08:40;;;;;;;13.55;3.25;;;8.40;99.90;;;;;;6155804;23;20040;-85
2022/02/24 07:17:48;;;;;;;12.88;2.90;;;8.40;99.90;;;;;;6157164;23;20009;-84
2022/02/24 07:20:18;;;;;;;10.52;2.40;;;8.40;99.90;;;;;;6155746;23;20006;-84
2022/02/24 07:22:50;;;;;;;10.65;2.70;;;8.50;99.90;;;;;;6157519;23;20029;-84
2022/02/24 07:25:56;;;;;;;13.20;2.85;;;8.40;99.90;;;;;;6155699;23;20085;-84
2022/02/24 07:31:53;;;;;;;;;;;8.50;99.90;;;;;;6114402;23;20105;-84
2022/02/24 07:41:04;;;;;;;15.38;3.42;;;8.40;99.90;;;;;;6053971;23;20014;-84
2022/02/24 07:43:32;;;;;;;16.05;2.88;;;8.40;99.90;;;;;;6155125;23;20014;-84
2022/02/24 07:46:01;;;;;;;15.57;3.53;;;8.40;99.90;;;;;;6155609;23;20002;-84
2022/02/24 07:48:38;;;;;;;12.98;2.80;;;8.40;99.90;;;;;;6156668;23;20005;-84
2022/02/24 07:51:08;;;;;;;10.77;3.03;;;8.40;99.90;;;;;;6157109;23;20013;-84
2022/02/24 07:53:41;;;;;;;14.20;3.30;;;8.40;99.90;;;;;;6155691;23;20002;-84
2022/02/24 07:56:07;;;;;;;13.02;3.17;;;8.40;99.90;;;;;;6154537;23;20033;-84
2022/02/24 07:58:36;;;;;;;10.02;2.70;;;8.40;99.90;;;;;;6155373;23;19997;-84
2022/02/24 08:01:21;;;;;;;12.73;2.72;;;8.50;99.90;;;;;;6131560;23;20010;-84
2022/02/24 08:03:50;;;;;;;10.98;2.50;;;8.40;99.90;;;;;;6155513;23;20025;-84
2022/02/24 08:06:15;;;;;;;6.95;2.25;;;8.50;99.90;;;;;;6155315;23;20021;-84
2022/02/24 08:08:46;;;;;;;7.18;2.20;;;8.50;99.90;;;;;;6155321;23;19997;-84
2022/02/24 08:11:29;;;;;;;;;;;;;;;;;;;;;
2022/02/24 08:13:55;;;;;;;12.75;2.50;;;8.50;99.90;;;;;;6156659;23;20404;-86
2022/02/24 08:16:23;;;;;;;10.07;2.83;;;8.50;99.90;;;;;;6154443;23;20033;-84
2022/02/24 08:18:49;;;;;;;9.50;2.30;;;8.50;99.90;;;;;;6155931;23;20012;-84
2022/02/24 08:21:17;;;;;;;9.75;2.70;;;8.50;99.90;;;;;;6155408;23;20185;-85
2022/02/24 08:23:46;;;;;;;14.23;3.53;;;8.50;99.90;;;;;;6131447;23;20006;-85
2022/02/24 08:26:14;;;;;;;12.55;2.85;;;8.40;99.90;;;;;;6155551;23;20001;-84
2022/02/24 08:28:40;;;;;;;11.35;2.65;;;8.40;99.90;;;;;;6130877;23;20089;-85
2022/02/24 08:31:14;;;;;;;12.02;2.60;;;8.40;99.90;;;;;;6154933;23;20045;-85
2022/02/24 08:33:45;;;;;;;16.20;3.13;;;8.40;99.90;;;;;;6154526;23;20001;-85
2022/02/24 08:36:13;;;;;;;;;;;8.40;99.90;;;;;;6155979;23;20012;-84
2022/02/24 08:38:41;;;;;;;9.27;2.40;;;8.40;99.90;;;;;;6154767;23;20295;-85
2022/02/24 08:41:07;;;;;;;14.00;3.08;;;8.40;99.90;;;;;;6155058;23;20013;-84
2022/02/24 08:43:35;;;;;;;16.75;3.58;;;8.40;99.90;;;;;;6154252;23;20396;-84
2022/02/24 08:46:05;;;;;;;10.27;2.75;;;8.40;99.90;;;;;;6155011;23;20015;-84
2022/02/24 08:48:33;;;;;;;15.53;3.00;;;8.40;99.90;;;;;;6154631;23;20002;-85
2022/02/24 08:50:59;;;;;;;15.38;2.63;;;8.40;99.90;;;;;;6154369;23;20288;-85
2022/02/24 08:53:35;;;;;;;11.98;2.88;;;8.50;99.90;;;;;;6154570;23;19997;-85
2022/02/24 08:56:05;;;;;;;11.50;3.00;;;8.60;99.90;;;;;;6154451;23;20081;-84
2022/02/24 08:58:42;;;;;;;9.32;2.90;;;8.60;99.90;;;;;;6130589;23;20384;-84
2022/02/24 09:01:10;;;;;;;11.00;3.75;;;8.70;99.90;;;;;;6131969;23;20039;-85
2022/02/24 09:03:44;;;;;;;8.63;2.40;;;8.60;99.90;;;;;;6154458;23;20013;-85
2022/02/24 09:06:28;;;;;;;11.27;2.53;;;8.70;99.90;;;;;;6107688;23;20009;-84
2022/02/24 09:09:04;;;;;;;12.68;2.60;;;8.80;99.90;;;;;;6154956;23;20006;-84
2022/02/24 09:11:30;;;;;;;9.85;2.85;;;8.70;99.90;;;;;;6154571;23;20009;-84
2022/02/24 09:14:12;;;;;;;11.57;2.88;;;8.80;99.90;;;;;;6154641;23;20079;-84
2022/02/24 09:16:38;;;;;;;9.13;2.40;;;8.80;99.90;;;;;;6155161;23;20036;-84
2022/02/24 09:19:04;;;;;;;10.57;2.50;;;8.80;99.90;;;;;;6154539;23;19998;-84
2022/02/24 09:21:32;;;;;;;9.95;2.85;;;8.80;99.90;;;;;;6155376;23;20010;-85
2022/02/24 09:24:06;;;;;;;9.10;2.10;;;8.90;99.90;;;;;;6154431;23;19998;-83
2022/02/24 09:26:36;;;;;;;9.45;2.92;;;8.90;99.90;;;;;;6155963;23;20479;-85
2022/02/24 09:29:06;;;;;;;10.60;2.50;;;8.90;99.90;;;;;;6156780;23;20459;-81
2022/02/24 09:31:32;;;;;;;9.88;2.40;;;9.00;99.90;;;;;;6154063;23;20007;-83
2022/02/24 09:34:03;;;;;;;10.65;2.22;;;9.00;99.90;;;;;;6130369;23;20016;-82
2022/02/24 09:36:29;;;;;;;8.45;2.20;;;9.10;99.90;;;;;;6155964;23;20104;-82
2022/02/24 09:39:10;;;;;;;14.50;2.88;;;9.10;99.90;;;;;;6155793;23;20001;-83
2022/02/24 09:41:38;;;;;;;14.65;2.40;;;9.10;99.90;;;;;;6155219;23;20016;-84
2022/02/24 09:44:13;;;;;;;12.93;2.38;;;9.20;99.90;;;;;;6153989;23;20060;-83
2022/02/24 09:46:48;;;;;;;11.00;2.13;;;9.20;99.90;;;;;;6153931;23;20002;-82
2022/02/24 09:49:31;;;;;;;9.18;1.70;;;9.20;99.90;;;;;;6130013;23;20141;-84
2022/02/24 09:52:16;;;;;;;9.23;1.98;;;9.30;99.90;;;;;;6131569;23;20077;-83
2022/02/24 09:54:51;;;;;;;12.50;2.28;;;9.30;99.90;;;;;;6154468;23;20002;-83
2022/02/24 09:57:22;;;;;;;8.60;2.45;;;9.30;99.90;;;;;;6154496;23;20439;-84
2022/02/24 10:00:04;;;;;;;9.38;2.28;;;9.30;99.90;;;;;;6130182;23;20401;-83
2022/02/24 10:02:33;;;;;;;9.55;1.88;;;9.30;99.90;;;;;;6154314;23;20010;-84
2022/02/24 10:05:38;;;;;;;8.52;1.95;;;9.30;99.90;;;;;;6155966;23;20055;-83
2022/02/24 10:08:10;;;;;;;9.93;2.13;;;9.40;99.90;;;;;;6135262;23;20092;-84
2022/02/24 10:11:04;;;;;;;9.10;2.35;;;9.50;99.90;;;;;;6155716;23;20057;-83
2022/02/24 10:13:33;;;;;;;8.00;2.22;;;9.50;99.90;;;;;;6154231;23;20013;-84
2022/02/24 10:16:10;;;;;;;13.02;2.10;;;9.60;99.90;;;;;;6154234;23;20008;-83
2022/02/24 10:18:45;;;;;;;;;;;;;;;;;;;;;
2022/02/24 10:21:22;;;;;;;10.63;2.15;;;9.60;99.90;;;;;;6155617;23;20476;-83
2022/02/24 10:24:11;;;;;;;9.63;2.17;;;9.70;99.90;;;;;;6154182;23;20036;-83
2022/02/24 10:27:32;;;;;;;10.55;2.28;;;9.70;99.90;;;;;;6152682;23;20006;-84
2022/02/24 10:30:19;;;;;;;7.47;1.80;;;9.70;99.90;;;;;;6154032;23;20009;-83
2022/02/24 10:33:09;;;;;;;10.52;2.47;;;9.80;99.90;;;;;;6155779;23;20010;-83
2022/02/24 10:35:54;;;;;;;9.15;2.00;;;9.90;99.90;;;;;;6154719;23;20013;-85
2022/02/24 10:38:38;;;;;;;11.32;2.17;;;10.00;99.90;;;;;;6131616;23;20428;-84
2022/02/24 10:41:34;;;;;;;;;;;;;;;;;;;;;
2022/02/24 10:44:35;;;;;;;9.73;1.90;;;10.10;99.90;;;;;;6165310;23;20108;-83
2022/02/24 10:47:12;;;;;;;10.10;1.88;;;10.20;99.90;;;;;;6158996;23;20005;-83
2022/02/24 10:50:17;;;;;;;;;;;;;;;;;;;;;
2022/02/24 10:53:20;;;;;;;;;;;;;;;;;;;;;
2022/02/24 10:56:17;;;;;;;11.70;2.30;;;10.50;99.90;;;;;;6184926;23;20084;-84
2022/02/24 10:58:45;;;;;;;9.43;2.85;;;10.60;99.90;;;;;;6131693;23;20059;-82
2022/02/24 11:01:40;;;;;;;10.52;2.55;;;10.70;99.90;;;;;;6160764;23;20031;-83
2022/02/24 11:04:09;;;;;;;9.02;1.58;;;10.70;99.90;;;;;;6160835;23;20395;-83
2022/02/24 11:07:02;;;;;;;11.10;2.33;;;10.80;99.90;;;;;;6157509;23;20055;-84
2022/02/24 11:09:41;;;;;;;;;;;;;;;;;;;;;
2022/02/24 11:12:11;;;;;;;11.98;2.00;;;10.90;99.90;;;;;;6163547;23;20526;-84
2022/02/24 11:14:44;;;;;;;11.70;2.03;;;11.00;99.90;;;;;;6160401;23;20028;-84
2022/02/24 11:17:14;;;;;;;9.75;2.33;;;11.00;99.90;;;;;;6160593;23;20352;-83
2022/02/24 11:19:47;;;;;;;10.85;1.90;;;11.10;99.90;;;;;;6160135;23;19997;-84
2022/02/24 11:22:26;;;;;;;;;;;;;;;;;;;;;
2022/02/24 11:25:06;;;;;;;7.05;1.40;;;11.30;99.90;;;;;;6187112;23;20076;-83
2022/02/24 11:27:37;;;;;;;7.75;1.92;;;11.40;99.90;;;;;;6160466;23;20001;-85
2022/02/24 11:30:08;;;;;;;8.05;1.52;;;11.50;99.90;;;;;;6187130;23;20001;-83
2022/02/24 11:32:36;;;;;;;;;;;11.60;99.90;;;;;;6160816;23;20486;-84
2022/02/24 11:35:27;;;;;;;6.78;2.00;;;11.70;99.90;;;;;;6160506;23;19900;-84
2022/02/24 11:38:13;;;;;;;7.22;1.50;;;11.80;99.90;;;;;;6139689;23;20373;-82
2022/02/24 11:40:53;;;;;;;9.93;2.13;;;11.80;99.90;;;;;;6160563;23;20004;-83
2022/02/24 11:43:29;;;;;;;7.28;2.10;;;11.90;99.80;;;;;;6160271;23;20020;-82
2022/02/24 11:46:05;;;;;;;7.13;1.55;;;11.90;99.70;;;;;;6136268;23;20005;-83
2022/02/24 11:48:55;;;;;;;9.23;1.67;;;11.90;99.90;;;;;;6160084;23;20012;-83
2022/02/24 11:51:34;;;;;;;6.70;1.45;;;11.90;99.60;;;;;;6186319;23;20006;-83
2022/02/24 11:54:08;;;;;;;4.72;1.25;;;11.90;99.30;;;;;;6160510;23;20324;-83
2022/02/24 11:56:34;;;;;;;7.32;1.98;;;11.90;99.10;;;;;;6159940;23;20033;-83
2022/02/24 11:59:26;;;;;;;7.03;2.10;;;11.90;99.90;;;;;;6160262;23;20008;-84
2022/02/24 12:02:10;;;;;;;6.07;1.60;;;11.90;99.60;;;;;;6185891;23;20530;-82
2022/02/24 12:05:12;;;;;;;;;;;;;;;;;;;;;
2022/02/24 12:08:03;;;;;;;6.85;1.52;;;11.90;99.90;;;;;;6186430;23;20080;-83
2022/02/24 12:10:43;;;;;;;6.72;1.35;;;11.90;99.00;;;;;;6186313;23;19997;-83
2022/02/24 12:13:27;;;;;;;7.18;2.00;;;11.90;99.90;;;;;;6160260;23;20032;-82
2022/02/24 12:19:53;;;;;;;8.80;1.60;;;11.90;99.30;;;;;;6165273;23;20087;-83
2022/02/24 12:23:08;;;;;;;;;;;;;;;;;;;;;
2022/02/24 12:32:21;;;;;;;5.72;1.40;;;12.20;97.70;;;;;;5940638;23;20423;-83
2022/02/24 12:35:08;;;;;;;3.53;1.30;;;12.20;98.90;;;;;;6013802;23;20003;-83
2022/02/24 12:37:45;;;;;;;5.38;1.40;;;12.10;99.10;;;;;;6137142;23;20350;-84
2022/02/24 12:40:18;;;;;;;5.65;1.40;;;12.20;99.30;;;;;;6162135;23;20005;-84
2022/02/24 12:42:54;;;;;;;6.03;1.50;;;12.20;99.10;;;;;;6159825;23;20012;-83
2022/02/24 12:45:21;;;;;;;7.15;1.42;;;12.20;98.30;;;;;;6159807;23;20017;-84
2022/02/24 12:48:01;;;;;;;6.22;1.33;;;12.20;99.10;;;;;;6185942;23;20004;-84
2022/02/24 12:50:39;;;;;;;4.32;1.42;;;12.20;98.40;;;;;;6136183;23;20006;-84
2022/02/24 12:53:17;;;;;;;9.23;1.63;;;12.20;98.30;;;;;;6137076;23;20359;-84
2022/02/24 12:55:52;;;;;;;4.00;1.02;;;12.10;98.30;;;;;;6186032;23;20054;-83
2022/02/24 12:58:29;;;;;;;3.70;1.10;;;12.10;98.20;;;;;;6159626;23;20004;-83
2022/02/24 13:01:37;;;;;;;5.72;1.55;;;12.10;98.70;;;;;;6159743;23;20312;-84
2022/02/24 13:04:14;;;;;;;9.23;1.50;;;12.20;99.00;;;;;;6159970;23;20372;-83
2022/02/24 13:07:01;;;;;;;9.73;2.40;;;12.10;99.30;;;;;;6159762;23;20016;-83
2022/02/24 13:09:44;;;;;;;5.57;1.15;;;12.20;98.50;;;;;;6159934;23;20012;-84
2022/02/24 13:12:13;;;;;;;5.28;1.17;;;12.10;98.10;;;;;;6159888;23;20013;-83
2022/02/24 13:15:06;;;;;;;6.30;1.40;;;12.10;98.70;;;;;;6160048;23;20005;-84
2022/02/24 13:17:33;;;;;;;4.55;1.10;;;12.10;99.40;;;;;;6163993;23;20059;-82
2022/02/24 13:20:04;;;;;;;5.45;1.10;;;12.10;99.90;;;;;;6159751;23;19997;-83
2022/02/24 13:22:50;;;;;;;4.15;1.30;;;12.00;99.90;;;;;;6159979;23;20005;-83
2022/02/24 13:25:24;;;;;;;5.47;1.40;;;12.00;99.90;;;;;;6159401;23;19997;-83
2022/02/24 13:27:50;;;;;;;5.68;1.50;;;11.90;99.90;;;;;;6159470;23;20033;-83
2022/02/24 13:30:21;;;;;;;6.70;1.75;;;11.80;99.90;;;;;;6158770;23;20013;-83
2022/02/24 13:32:52;;;;;;;5.82;1.50;;;11.70;99.90;;;;;;6159335;23;20012;-82
2022/02/24 13:35:32;;;;;;;;;;;;;;;;;;;;;
2022/02/24 13:38:39;;;;;;;;;;;;;;;;;;;;;
2022/02/24 13:41:25;;;;;;;5.38;2.10;;;11.40;99.90;;;;;;6173438;23;20092;-82
2022/02/24 13:43:58;;;;;;;8.75;1.63;;;11.30;99.90;;;;;;6129209;23;20052;-84
2022/02/24 13:46:41;;;;;;;7.32;1.73;;;11.20;99.90;;;;;;6154065;23;20005;-82
2022/02/24 13:49:59;;;;;;;4.85;1.00;;;11.20;99.90;;;;;;6129829;23;20092;-83
2022/02/24 13:55:33;;;;;;;2.53;0.80;;;11.00;99.90;;;;;;6138529;23;20340;-85
2022/02/24 13:58:08;;;;;;;2.38;0.65;;;10.80;99.90;;;;;;6107485;23;20005;-85
2022/02/24 14:01:04;;;;;;;;;;;;;;;;;;;;;
2022/02/24 14:04:07;;;;;;;3.00;0.70;;;10.00;99.90;;;;;;6155826;23;20080;-85
2022/02/24 14:10:13;;;;;;;5.78;1.10;;;9.60;99.90;;;;;;6150145;23;20471;-87
2022/02/24 14:13:08;;;;;;;;;;;;;;;;;;;;;
2022/02/24 14:15:53;;;;;;;2.20;0.47;;;9.30;99.90;;;;;;6155944;23;20085;-84
2022/02/24 14:18:42;;;;;;;6.95;1.63;;;9.20;99.90;;;;;;6154021;23;20226;-83
2022/02/24 14:21:45;;;;;;;5.15;0.98;;;9.10;99.90;;;;;;6154354;23;20001;-83
2022/02/24 14:24:25;;;;;;;5.03;1.15;;;9.10;99.90;;;;;;6154438;23;20001;-83
2022/02/24 14:26:53;;;;;;;3.40;0.70;;;9.00;99.90;;;;;;6132368;23;20006;-84
2022/02/24 14:29:22;;;;;;;4.35;0.40;;;8.90;99.90;;;;;;6129936;23;20005;-83